createdAt,value
2017-10-19T00:01:04.804Z,95.10
2017-10-19T00:03:34.646Z,95.10
2017-10-19T00:06:02.957Z,95.00
2017-10-19T00:08:32.041Z,95.50
2017-10-19T00:11:00.309Z,95.70
2017-10-19T00:13:29.997Z,96.00
2017-10-19T00:15:59.020Z,96.00
2017-10-19T00:18:28.384Z,96.00
2017-10-19T00:20:57.476Z,95.90
2017-10-19T00:23:25.702Z,95.90
2017-10-19T00:25:53.969Z,95.90
2017-10-19T00:28:24.346Z,96.00
2017-10-19T00:30:52.638Z,95.80
2017-10-19T00:33:20.889Z,95.80
2017-10-19T00:35:49.182Z,95.80
2017-10-19T00:38:19.273Z,95.80
2017-10-19T00:40:47.551Z,95.80
2017-10-19T00:43:17.221Z,95.80
2017-10-19T00:45:46.237Z,96.00
2017-10-19T00:48:14.504Z,96.00
2017-10-19T00:50:43.501Z,95.80
2017-10-19T00:53:12.576Z,95.90
2017-10-19T00:55:42.398Z,95.90
2017-10-19T00:58:10.820Z,95.70
2017-10-19T01:00:39.135Z,95.70
2017-10-19T01:03:07.685Z,95.80
2017-10-19T01:05:35.935Z,95.80
2017-10-19T01:08:04.303Z,95.80
2017-10-19T01:10:32.557Z,95.80
2017-10-19T01:13:01.733Z,95.60
2017-10-19T01:15:30.038Z,95.60
2017-10-19T01:17:59.837Z,95.80
2017-10-19T01:20:28.177Z,95.80
2017-10-19T01:22:56.489Z,95.90
2017-10-19T01:25:24.753Z,96.00
2017-10-19T01:27:53.274Z,96.10
2017-10-19T01:30:23.266Z,96.20
2017-10-19T01:32:51.595Z,96.20
2017-10-19T01:35:19.904Z,96.10
2017-10-19T01:37:49.022Z,96.40
2017-10-19T01:40:17.287Z,96.30
2017-10-19T01:42:45.533Z,96.60
2017-10-19T01:45:13.797Z,96.70
2017-10-19T01:47:42.055Z,96.30
2017-10-19T01:50:12.019Z,96.00
2017-10-19T01:52:40.288Z,96.00
2017-10-19T01:55:08.538Z,96.00
2017-10-19T01:57:36.868Z,96.00
2017-10-19T02:00:05.960Z,96.10
2017-10-19T02:02:34.227Z,95.90
2017-10-19T02:05:03.412Z,96.10
2017-10-19T02:07:32.447Z,96.10
2017-10-19T02:10:00.747Z,96.00
2017-10-19T02:12:29.130Z,96.00
2017-10-19T02:14:57.395Z,96.00
2017-10-19T02:17:26.433Z,96.10
2017-10-19T02:19:55.383Z,96.00
2017-10-19T02:22:24.320Z,96.00
2017-10-19T02:24:52.599Z,95.60
2017-10-19T02:27:21.857Z,95.80
2017-10-19T02:29:50.092Z,95.90
2017-10-19T02:32:20.088Z,96.00
2017-10-19T02:34:48.488Z,96.00
2017-10-19T02:37:16.727Z,96.10
2017-10-19T02:39:46.698Z,96.10
2017-10-19T02:42:14.938Z,96.20
2017-10-19T02:44:43.264Z,96.00
2017-10-19T02:47:12.202Z,96.00
2017-10-19T02:49:40.461Z,96.20
2017-10-19T02:52:08.723Z,96.10
2017-10-19T02:54:37.015Z,96.10
2017-10-19T02:57:06.831Z,96.10
2017-10-19T02:59:36.071Z,96.00
2017-10-19T03:02:05.307Z,96.00
2017-10-19T03:04:35.203Z,96.00
2017-10-19T03:07:03.471Z,95.90
2017-10-19T03:09:31.731Z,95.90
2017-10-19T03:11:59.970Z,95.90
2017-10-19T03:14:29.903Z,96.00
2017-10-19T03:16:58.176Z,96.00
2017-10-19T03:19:27.180Z,96.00
2017-10-19T03:21:55.453Z,96.00
2017-10-19T03:24:24.519Z,96.10
2017-10-19T03:26:54.313Z,96.10
2017-10-19T03:29:22.579Z,96.20
2017-10-19T03:31:51.707Z,96.00
2017-10-19T03:34:19.955Z,96.20
2017-10-19T03:36:48.976Z,96.20
2017-10-19T03:39:17.232Z,96.10
2017-10-19T03:41:47.341Z,96.10
2017-10-19T03:44:17.451Z,96.20
2017-10-19T03:46:45.692Z,96.20
2017-10-19T03:49:14.840Z,96.10
2017-10-19T03:51:43.138Z,96.10
2017-10-19T03:54:12.520Z,96.10
2017-10-19T03:56:40.791Z,95.90
2017-10-19T03:59:09.084Z,96.10
2017-10-19T04:01:37.317Z,96.10
2017-10-19T04:04:07.602Z,96.10
2017-10-19T04:06:35.834Z,96.00
2017-10-19T04:09:04.970Z,96.00
2017-10-19T04:11:34.000Z,96.10
2017-10-19T04:14:02.354Z,96.10
2017-10-19T04:16:31.190Z,96.20
2017-10-19T04:18:59.618Z,96.10
2017-10-19T04:21:27.851Z,96.00
2017-10-19T04:23:57.093Z,95.80
2017-10-19T04:26:27.552Z,95.90
2017-10-19T04:28:57.090Z,95.80
2017-10-19T04:31:25.331Z,95.50
2017-10-19T04:33:54.498Z,95.40
2017-10-19T04:36:23.242Z,95.40
2017-10-19T04:38:51.548Z,95.50
2017-10-19T04:41:20.253Z,95.30
2017-10-19T04:43:48.521Z,95.50
2017-10-19T04:46:16.802Z,95.00
2017-10-19T04:48:46.450Z,95.00
2017-10-19T04:51:14.738Z,95.00
2017-10-19T04:53:43.722Z,94.80
2017-10-19T04:56:12.868Z,94.80
2017-10-19T04:58:41.311Z,94.80
2017-10-19T05:01:10.300Z,94.90
2017-10-19T05:03:38.659Z,94.90
2017-10-19T05:06:08.591Z,94.90
2017-10-19T05:08:38.567Z,95.00
2017-10-19T05:11:06.831Z,95.10
2017-10-19T05:13:35.759Z,95.20
2017-10-19T05:16:04.221Z,95.10
2017-10-19T05:18:35.612Z,95.10
2017-10-19T05:21:04.024Z,95.00
2017-10-19T05:23:33.158Z,95.20
2017-10-19T05:26:02.372Z,95.30
2017-10-19T05:28:31.520Z,95.30
2017-10-19T05:31:00.770Z,95.30
2017-10-19T05:33:30.082Z,95.20
2017-10-19T05:36:00.411Z,94.80
2017-10-19T05:38:29.431Z,94.90
2017-10-19T05:40:57.696Z,94.90
2017-10-19T05:43:26.446Z,95.10
2017-10-19T05:45:54.810Z,95.10
2017-10-19T05:48:23.879Z,95.40
2017-10-19T05:50:52.157Z,95.40
2017-10-19T05:53:21.158Z,95.40
2017-10-19T05:55:50.710Z,95.20
2017-10-19T05:58:20.773Z,95.20
2017-10-19T06:00:49.181Z,95.20
2017-10-19T06:03:18.386Z,95.10
2017-10-19T06:05:47.893Z,95.30
2017-10-19T06:08:16.762Z,95.10
2017-10-19T06:10:45.030Z,95.20
2017-10-19T06:13:13.321Z,95.10
2017-10-19T06:15:41.987Z,95.20
2017-10-19T06:18:10.323Z,95.30
2017-10-19T06:20:39.402Z,95.20
2017-10-19T06:23:07.674Z,95.20
2017-10-19T06:25:35.922Z,95.20
2017-10-19T06:28:06.297Z,95.00
2017-10-19T06:30:34.533Z,95.10
2017-10-19T06:33:02.792Z,95.20
2017-10-19T06:35:31.088Z,95.20
2017-10-19T06:38:00.739Z,95.30
2017-10-19T06:40:29.947Z,95.20
2017-10-19T06:42:59.001Z,95.10
2017-10-19T06:45:28.798Z,95.10
2017-10-19T06:47:57.776Z,95.10
2017-10-19T06:50:27.723Z,95.10
2017-10-19T06:52:56.852Z,95.00
2017-10-19T06:55:25.119Z,94.80
2017-10-19T06:57:54.181Z,94.90
2017-10-19T07:00:23.074Z,94.80
2017-10-19T07:02:51.373Z,94.80
2017-10-19T07:05:19.673Z,94.80
2017-10-19T07:07:48.465Z,94.50
2017-10-19T07:10:16.738Z,94.40
2017-10-19T07:12:44.971Z,94.40
2017-10-19T07:15:14.829Z,94.10
2017-10-19T07:17:43.139Z,94.20
2017-10-19T07:20:12.154Z,94.30
2017-10-19T07:22:41.632Z,94.30
2017-10-19T07:25:09.879Z,93.80
2017-10-19T07:27:38.138Z,93.70
2017-10-19T07:30:06.729Z,93.80
2017-10-19T07:32:35.067Z,93.80
2017-10-19T07:35:05.484Z,93.60
2017-10-19T07:37:34.631Z,93.50
2017-10-19T07:40:03.150Z,93.30
2017-10-19T07:42:31.432Z,92.80
2017-10-19T07:45:01.231Z,92.40
2017-10-19T07:47:30.264Z,92.00
2017-10-19T07:49:58.548Z,91.80
2017-10-19T07:52:26.820Z,91.90
2017-10-19T07:54:55.179Z,92.10
2017-10-19T07:57:24.226Z,92.00
2017-10-19T07:59:52.480Z,92.00
2017-10-19T08:02:20.751Z,92.30
2017-10-19T08:04:49.952Z,91.90
2017-10-19T08:07:19.094Z,92.00
2017-10-19T08:09:49.403Z,92.10
2017-10-19T08:12:18.252Z,92.10
2017-10-19T08:14:47.289Z,92.10
2017-10-19T08:17:16.377Z,92.20
2017-10-19T08:19:45.469Z,92.00
2017-10-19T08:22:14.368Z,92.10
2017-10-19T08:24:43.401Z,92.00
2017-10-19T08:27:12.611Z,91.80
2017-10-19T08:29:42.521Z,91.70
2017-10-19T08:32:13.059Z,91.70
2017-10-19T08:34:42.443Z,91.70
2017-10-19T08:37:11.564Z,91.60
2017-10-19T08:39:40.637Z,91.00
2017-10-19T08:42:09.037Z,91.10
2017-10-19T08:44:37.317Z,91.30
2017-10-19T08:47:07.387Z,91.00
2017-10-19T08:49:36.445Z,91.00
2017-10-19T08:52:04.761Z,90.90
2017-10-19T08:54:33.796Z,90.90
2017-10-19T08:57:02.966Z,90.80
2017-10-19T08:59:31.211Z,90.50
2017-10-19T09:01:59.470Z,90.30
2017-10-19T09:04:27.726Z,90.20
2017-10-19T09:06:56.766Z,90.00
2017-10-19T09:09:25.187Z,90.00
2017-10-19T09:11:53.431Z,89.30
2017-10-19T09:14:24.160Z,89.00
2017-10-19T09:16:52.399Z,88.90
2017-10-19T09:19:20.696Z,88.30
2017-10-19T09:21:49.751Z,88.10
2017-10-19T09:24:19.919Z,87.90
2017-10-19T09:26:48.203Z,88.00
2017-10-19T09:29:16.476Z,87.50
2017-10-19T09:31:44.792Z,87.30
2017-10-19T09:34:14.528Z,86.90
2017-10-19T09:36:43.616Z,86.20
2017-10-19T09:39:12.705Z,86.10
2017-10-19T09:41:41.814Z,86.30
2017-10-19T09:44:11.744Z,86.30
2017-10-19T09:46:41.638Z,86.20
2017-10-19T09:49:10.507Z,86.10
2017-10-19T09:51:38.760Z,84.60
2017-10-19T09:54:07.887Z,84.90
2017-10-19T09:56:36.147Z,84.90
2017-10-19T09:59:04.401Z,85.00
2017-10-19T10:01:32.715Z,84.90
2017-10-19T10:04:00.948Z,84.20
2017-10-19T10:06:29.230Z,84.50
2017-10-19T10:08:58.302Z,84.80
2017-10-19T10:11:27.334Z,84.90
2017-10-19T10:13:56.351Z,84.80
2017-10-19T10:16:24.620Z,84.30
2017-10-19T10:18:53.791Z,83.80
2017-10-19T10:21:22.023Z,83.30
2017-10-19T10:23:50.298Z,83.20
2017-10-19T10:26:19.061Z,83.30
2017-10-19T10:28:47.321Z,82.70
2017-10-19T10:31:17.385Z,83.30
2017-10-19T10:33:45.618Z,83.00
2017-10-19T10:36:13.902Z,82.70
2017-10-19T10:38:43.534Z,82.60
2017-10-19T10:41:11.834Z,83.30
2017-10-19T10:43:40.889Z,80.90
2017-10-19T10:46:09.273Z,81.00
2017-10-19T10:48:38.523Z,80.70
2017-10-19T10:51:08.649Z,78.50
2017-10-19T10:53:37.869Z,78.40
2017-10-19T10:56:06.191Z,78.40
2017-10-19T10:58:34.853Z,78.30
2017-10-19T11:01:04.983Z,76.60
2017-10-19T11:03:35.569Z,76.00
2017-10-19T11:06:05.219Z,75.60
2017-10-19T11:08:35.240Z,75.50
2017-10-19T11:11:03.551Z,76.00
2017-10-19T11:13:31.802Z,75.80
2017-10-19T11:16:00.051Z,75.20
2017-10-19T11:18:28.348Z,74.60
2017-10-19T11:20:56.808Z,75.10
2017-10-19T11:23:25.819Z,73.90
2017-10-19T11:25:56.501Z,74.50
2017-10-19T11:28:24.890Z,74.50
2017-10-19T11:30:53.911Z,74.20
2017-10-19T11:33:25.149Z,74.70
2017-10-19T11:35:53.401Z,74.10
2017-10-19T11:38:22.455Z,73.40
2017-10-19T11:40:50.721Z,73.40
2017-10-19T11:43:19.000Z,72.80
2017-10-19T11:45:48.418Z,72.30
2017-10-19T11:48:16.739Z,73.30
2017-10-19T11:50:45.897Z,72.30
2017-10-19T11:53:14.182Z,72.30
2017-10-19T11:55:43.266Z,71.20
2017-10-19T11:58:12.362Z,71.20
2017-10-19T12:00:40.617Z,71.60
2017-10-19T12:03:08.871Z,71.70
2017-10-19T12:05:37.163Z,72.00
2017-10-19T12:08:05.407Z,71.80
2017-10-19T12:10:33.712Z,71.60
2017-10-19T12:13:02.004Z,71.60
2017-10-19T12:15:31.255Z,71.10
2017-10-19T12:17:59.524Z,71.70
2017-10-19T12:20:28.699Z,71.80
2017-10-19T12:22:57.024Z,71.50
2017-10-19T12:25:26.080Z,71.60
2017-10-19T12:27:54.620Z,71.60
2017-10-19T12:30:25.242Z,71.10
2017-10-19T12:32:54.828Z,71.10
2017-10-19T12:35:23.091Z,70.50
2017-10-19T12:37:52.923Z,70.80
2017-10-19T12:40:22.066Z,70.70
2017-10-19T12:42:50.939Z,70.70
2017-10-19T12:45:21.174Z,71.00
2017-10-19T12:47:51.191Z,71.00
2017-10-19T12:50:19.638Z,70.50
2017-10-19T12:52:49.432Z,70.90
2017-10-19T12:55:17.739Z,70.90
2017-10-19T12:57:46.601Z,70.70
2017-10-19T13:00:16.087Z,70.40
2017-10-19T13:02:45.332Z,70.30
2017-10-19T13:05:13.547Z,70.80
2017-10-19T13:07:42.662Z,70.80
2017-10-19T13:10:11.715Z,70.50
2017-10-19T13:12:40.922Z,70.50
2017-10-19T13:15:10.375Z,70.70
2017-10-19T13:17:38.631Z,70.70
2017-10-19T13:20:06.910Z,70.30
2017-10-19T13:22:35.189Z,70.10
2017-10-19T13:25:03.444Z,70.00
2017-10-19T13:27:32.492Z,69.90
2017-10-19T13:30:02.284Z,70.40
2017-10-19T13:32:30.542Z,70.40
2017-10-19T13:34:58.842Z,70.50
2017-10-19T13:37:27.483Z,70.30
2017-10-19T13:39:55.752Z,70.20
2017-10-19T13:42:26.084Z,70.40
2017-10-19T13:44:54.354Z,70.50
2017-10-19T13:47:23.697Z,70.10
2017-10-19T13:49:52.086Z,70.00
2017-10-19T13:52:21.031Z,70.60
2017-10-19T13:54:49.301Z,70.70
2017-10-19T13:57:18.408Z,70.70
2017-10-19T13:59:47.457Z,70.90
2017-10-19T14:02:17.333Z,70.90
2017-10-19T14:04:45.594Z,71.00
2017-10-19T14:07:14.001Z,71.10
2017-10-19T14:09:43.254Z,71.10
2017-10-19T14:12:11.539Z,71.00
2017-10-19T14:14:39.902Z,71.30
2017-10-19T14:17:08.943Z,72.30
2017-10-19T14:19:37.663Z,72.30
2017-10-19T14:22:05.969Z,71.80
2017-10-19T14:24:34.246Z,71.80
2017-10-19T14:27:03.072Z,71.40
2017-10-19T14:29:31.828Z,72.00
2017-10-19T14:32:00.125Z,72.00
2017-10-19T14:34:28.381Z,72.90
2017-10-19T14:36:57.483Z,72.40
2017-10-19T14:39:26.932Z,72.70
2017-10-19T14:41:55.195Z,72.70
2017-10-19T14:44:25.067Z,72.70
2017-10-19T14:46:54.178Z,73.10
2017-10-19T14:49:22.501Z,72.80
2017-10-19T14:51:50.745Z,73.20
2017-10-19T14:54:19.010Z,73.80
2017-10-19T14:56:47.335Z,73.40
2017-10-19T14:59:15.769Z,73.40
2017-10-19T15:01:44.046Z,73.70
2017-10-19T15:04:12.312Z,74.20
2017-10-19T15:06:41.029Z,74.10
2017-10-19T15:09:09.321Z,75.00
2017-10-19T15:11:37.660Z,74.30
2017-10-19T15:14:05.909Z,74.10
2017-10-19T15:16:34.164Z,74.30
2017-10-19T15:19:03.375Z,74.20
2017-10-19T15:21:31.637Z,74.70
2017-10-19T15:24:00.952Z,74.90
2017-10-19T15:26:29.224Z,75.20
2017-10-19T15:28:57.492Z,75.20
2017-10-19T15:31:25.819Z,75.10
2017-10-19T15:33:54.093Z,75.60
2017-10-19T15:36:22.374Z,75.80
2017-10-19T15:38:50.656Z,76.40
2017-10-19T15:41:20.214Z,76.40
2017-10-19T15:43:49.780Z,76.30
2017-10-19T15:46:18.045Z,76.40
2017-10-19T15:48:46.282Z,77.20
2017-10-19T15:51:15.523Z,77.20
2017-10-19T15:53:43.776Z,77.80
2017-10-19T15:56:12.919Z,78.40
2017-10-19T15:58:42.243Z,78.70
2017-10-19T16:01:11.509Z,78.70
2017-10-19T16:03:39.837Z,79.00
2017-10-19T16:06:08.331Z,79.40
2017-10-19T16:08:36.612Z,79.50
2017-10-19T16:11:05.037Z,80.00
2017-10-19T16:13:34.653Z,80.10
2017-10-19T16:16:03.736Z,80.70
2017-10-19T16:18:32.773Z,81.00
2017-10-19T16:21:01.016Z,81.00
2017-10-19T16:23:30.276Z,81.50
2017-10-19T16:25:59.503Z,82.50
2017-10-19T16:28:29.250Z,83.00
2017-10-19T16:30:58.134Z,83.40
2017-10-19T16:33:26.437Z,84.30
2017-10-19T16:35:54.678Z,85.00
2017-10-19T16:38:22.943Z,85.20
2017-10-19T16:40:51.246Z,85.50
2017-10-19T16:43:20.159Z,86.00
2017-10-19T16:45:48.446Z,86.10
2017-10-19T16:48:16.863Z,86.90
2017-10-19T16:50:45.119Z,87.00
2017-10-19T16:53:13.414Z,87.30
2017-10-19T16:55:42.904Z,88.10
2017-10-19T16:58:11.183Z,88.40
2017-10-19T17:00:40.471Z,88.50
2017-10-19T17:03:09.561Z,89.80
2017-10-19T17:05:37.888Z,89.80
2017-10-19T17:08:06.962Z,89.90
2017-10-19T17:10:35.264Z,89.90
2017-10-19T17:13:04.467Z,90.20
2017-10-19T17:15:33.730Z,90.30
2017-10-19T17:18:02.135Z,90.30
2017-10-19T17:20:30.446Z,90.20
2017-10-19T17:23:00.252Z,90.50
2017-10-19T17:25:30.208Z,90.50
2017-10-19T17:27:59.368Z,90.50
2017-10-19T17:30:27.693Z,90.70
2017-10-19T17:32:56.092Z,90.70
2017-10-19T17:35:24.545Z,90.70
2017-10-19T17:37:52.805Z,90.90
2017-10-19T17:40:22.034Z,90.90
2017-10-19T17:42:50.346Z,90.80
2017-10-19T17:45:20.002Z,90.70
2017-10-19T17:47:48.296Z,90.70
2017-10-19T17:50:16.705Z,90.70
2017-10-19T17:52:44.934Z,90.70
2017-10-19T17:55:14.223Z,90.70
2017-10-19T17:57:43.267Z,90.80
2017-10-19T18:00:13.072Z,91.20
2017-10-19T18:02:43.481Z,91.30
2017-10-19T18:05:11.916Z,91.30
2017-10-19T18:07:40.361Z,91.40
2017-10-19T18:10:10.208Z,91.50
2017-10-19T18:12:39.632Z,92.30
2017-10-19T18:15:08.692Z,92.30
2017-10-19T18:17:37.870Z,92.30
2017-10-19T18:20:06.164Z,92.30
2017-10-19T18:22:35.298Z,92.30
2017-10-19T18:25:04.332Z,92.60
2017-10-19T18:27:33.564Z,92.60
2017-10-19T18:30:02.143Z,92.60
2017-10-19T18:32:31.336Z,92.60
2017-10-19T18:34:59.643Z,92.60
2017-10-19T18:37:29.299Z,93.10
2017-10-19T18:39:57.612Z,93.00
2017-10-19T18:42:26.677Z,93.30
2017-10-19T18:44:55.006Z,93.30
2017-10-19T18:47:23.294Z,93.30
2017-10-19T18:49:52.351Z,93.50
2017-10-19T18:52:21.044Z,93.20
2017-10-19T18:54:49.332Z,93.30
2017-10-19T18:57:20.878Z,93.30
2017-10-19T18:59:49.261Z,93.30
2017-10-19T19:02:19.063Z,93.10
2017-10-19T19:04:48.303Z,93.10
2017-10-19T19:07:16.659Z,93.00
2017-10-19T19:09:44.938Z,92.90
2017-10-19T19:12:14.262Z,92.50
2017-10-19T19:14:42.531Z,92.50
2017-10-19T19:17:10.793Z,92.40
2017-10-19T19:19:40.645Z,92.10
2017-10-19T19:22:08.958Z,92.10
2017-10-19T19:24:38.869Z,91.40
2017-10-19T19:27:08.192Z,91.30
2017-10-19T19:29:38.186Z,91.60
2017-10-19T19:32:09.529Z,91.30
2017-10-19T19:34:37.802Z,91.00
2017-10-19T19:37:06.934Z,91.00
2017-10-19T19:39:35.799Z,91.10
2017-10-19T19:42:04.082Z,91.20
2017-10-19T19:44:32.404Z,91.50
2017-10-19T19:47:02.161Z,91.70
2017-10-19T19:49:32.518Z,91.50
2017-10-19T19:52:00.800Z,91.50
2017-10-19T19:54:29.094Z,91.60
2017-10-19T19:56:58.154Z,91.70
2017-10-19T19:59:28.104Z,91.70
2017-10-19T20:01:56.387Z,91.70
2017-10-19T20:04:26.307Z,91.70
2017-10-19T20:06:54.586Z,91.70
2017-10-19T20:09:24.690Z,92.00
2017-10-19T20:11:54.712Z,91.50
2017-10-19T20:14:24.383Z,91.50
2017-10-19T20:16:52.697Z,91.50
2017-10-19T20:19:22.000Z,91.30
2017-10-19T20:21:54.263Z,91.30
2017-10-19T20:24:25.306Z,91.30
2017-10-19T20:26:54.364Z,91.40
2017-10-19T20:29:22.627Z,91.30
2017-10-19T20:31:51.642Z,91.30
2017-10-19T20:34:20.455Z,91.70
2017-10-19T20:36:48.787Z,91.60
2017-10-19T20:39:17.827Z,91.80
2017-10-19T20:41:49.050Z,92.10
2017-10-19T20:44:17.298Z,92.30
2017-10-19T20:46:45.597Z,92.60
2017-10-19T20:49:14.019Z,92.60
2017-10-19T20:51:43.876Z,93.00
2017-10-19T20:54:12.152Z,93.00
2017-10-19T20:56:40.444Z,93.10
2017-10-19T20:59:08.706Z,93.50
2017-10-19T21:01:37.011Z,93.40
2017-10-19T21:04:05.877Z,93.80
2017-10-19T21:06:35.080Z,93.20
2017-10-19T21:09:03.382Z,93.20
2017-10-19T21:11:31.718Z,93.20
2017-10-19T21:13:59.983Z,93.10
2017-10-19T21:16:29.061Z,93.10
2017-10-19T21:18:57.339Z,93.10
2017-10-19T21:21:25.610Z,93.10
2017-10-19T21:23:54.147Z,93.20
2017-10-19T21:26:22.616Z,93.40
2017-10-19T21:28:50.894Z,93.30
2017-10-19T21:31:19.564Z,93.20
2017-10-19T21:33:49.072Z,93.20
2017-10-19T21:36:18.144Z,93.30
2017-10-19T21:38:47.268Z,93.30
2017-10-19T21:41:16.545Z,93.30
2017-10-19T21:43:44.861Z,93.30
2017-10-19T21:46:13.661Z,93.20
2017-10-19T21:48:42.521Z,93.40
2017-10-19T21:51:12.426Z,93.40
2017-10-19T21:53:41.622Z,93.40
2017-10-19T21:56:10.640Z,93.70
2017-10-19T21:58:39.828Z,93.40
2017-10-19T22:01:08.855Z,93.60
2017-10-19T22:03:37.126Z,93.60
2017-10-19T22:06:05.690Z,93.70
2017-10-19T22:08:35.812Z,93.70
2017-10-19T22:11:04.165Z,93.60
2017-10-19T22:13:33.235Z,93.50
2017-10-19T22:16:01.670Z,93.60
2017-10-19T22:18:30.656Z,93.60
2017-10-19T22:21:00.432Z,93.50
2017-10-19T22:23:28.645Z,93.50
2017-10-19T22:25:59.877Z,93.60
2017-10-19T22:28:29.588Z,93.60
2017-10-19T22:30:57.959Z,93.80
2017-10-19T22:33:28.199Z,93.80
2017-10-19T22:35:56.470Z,93.70
2017-10-19T22:38:24.767Z,93.80
2017-10-19T22:40:53.786Z,94.00
2017-10-19T22:43:22.040Z,93.90
2017-10-19T22:45:51.753Z,93.90
2017-10-19T22:48:21.601Z,93.90
2017-10-19T22:50:50.019Z,93.90
2017-10-19T22:53:19.039Z,93.80
2017-10-19T22:55:48.111Z,93.70
2017-10-19T22:58:16.360Z,93.60
2017-10-19T23:00:44.607Z,93.50
2017-10-19T23:03:12.952Z,93.50
2017-10-19T23:05:41.715Z,93.70
2017-10-19T23:08:11.422Z,93.70
2017-10-19T23:10:39.672Z,93.70
2017-10-19T23:13:07.955Z,93.50
2017-10-19T23:15:36.840Z,93.60
2017-10-19T23:18:05.127Z,93.60
2017-10-19T23:20:34.142Z,93.70
2017-10-19T23:23:02.405Z,93.90
2017-10-19T23:25:32.110Z,93.60
2017-10-19T23:28:00.338Z,93.70
2017-10-19T23:30:29.121Z,93.80
2017-10-19T23:32:58.757Z,93.70
2017-10-19T23:35:28.331Z,93.70
2017-10-19T23:37:56.615Z,93.70
2017-10-19T23:40:26.442Z,93.70
2017-10-19T23:42:55.541Z,93.70
2017-10-19T23:45:25.844Z,93.60
2017-10-19T23:47:54.080Z,93.60
2017-10-19T23:50:25.228Z,93.70
2017-10-19T23:52:53.478Z,93.40
2017-10-19T23:55:23.979Z,93.60
2017-10-19T23:57:52.269Z,93.60
